Time;durP1;ratioP1;P1;durP2;ratioP2;P2;SDS_P1;SDS_P2;PMS_P1;PMS_P2;Temp;Humidity;BMP_temperature;BMP_pressure;BME280_temperature;BME280_humidity;BME280_pressure;Samples;Min_cycle;Max_cycle;Signal;HPM_P1;HPM_P2
2023/11/21 00:01:10;;;;;;;9.18;4.00;;;;;;;19.13;82.41;101098.00;5044176;28;20049;-38
2023/11/21 00:03:36;;;;;;;6.25;3.00;;;;;;;19.14;82.75;101101.56;5032773;28;20031;-38
2023/11/21 00:06:02;;;;;;;4.72;2.92;;;;;;;19.13;82.51;101105.41;5035298;28;20175;-39
2023/11/21 00:08:28;;;;;;;3.78;2.65;;;;;;;19.11;82.82;101108.44;5043403;28;20028;-39
2023/11/21 00:10:54;;;;;;;6.22;3.08;;;;;;;19.11;82.60;101110.38;5038267;28;20047;-39
2023/11/21 00:13:20;;;;;;;4.03;3.08;;;;;;;19.10;82.68;101117.78;5073562;28;20385;-38
2023/11/21 00:15:45;;;;;;;6.38;3.03;;;;;;;19.08;82.62;101112.56;5073407;28;20028;-38
2023/11/21 00:18:10;;;;;;;5.53;3.38;;;;;;;19.06;82.93;101111.19;5037710;28;20507;-38
2023/11/21 00:20:36;;;;;;;8.35;3.05;;;;;;;19.06;82.61;101102.94;5031509;28;20029;-39
2023/11/21 00:23:02;;;;;;;5.85;3.10;;;;;;;19.06;82.83;101109.25;5054632;28;20024;-39
2023/11/21 00:25:27;;;;;;;4.90;3.10;;;;;;;19.03;82.67;101098.84;5058321;28;20111;-39
2023/11/21 00:27:53;;;;;;;5.45;3.20;;;;;;;19.04;82.77;101107.91;5056845;28;20499;-37
2023/11/21 00:30:20;;;;;;;7.05;2.97;;;;;;;19.03;82.74;101109.84;5049843;28;20085;-38
2023/11/21 00:32:45;;;;;;;7.65;3.05;;;;;;;19.01;83.12;101101.03;5044346;28;20043;-38
2023/11/21 00:35:11;;;;;;;5.45;3.03;;;;;;;19.01;82.83;101105.72;5035392;28;20033;-38
2023/11/21 00:37:36;;;;;;;4.25;2.88;;;;;;;19.01;82.60;101106.53;5040728;28;20024;-39
2023/11/21 00:40:05;;;;;;;4.30;2.78;;;;;;;18.99;82.78;101110.66;5043386;28;20027;-38
2023/11/21 00:42:33;;;;;;;5.93;2.80;;;;;;;18.97;82.78;101110.94;5048478;28;20036;-41
2023/11/21 00:44:59;;;;;;;6.85;3.00;;;;;;;18.97;83.00;101110.94;5057620;28;20039;-41
2023/11/21 00:47:24;;;;;;;8.90;2.75;;;;;;;18.97;82.75;101110.94;5041648;28;20055;-41
2023/11/21 00:49:50;;;;;;;5.80;2.53;;;;;;;18.95;82.92;101112.31;5045113;28;20037;-41
2023/11/21 00:52:16;;;;;;;5.47;2.78;;;;;;;18.94;82.83;101110.66;5047745;28;20020;-41
2023/11/21 00:54:42;;;;;;;3.28;2.67;;;;;;;18.94;82.97;101110.66;5045479;28;20532;-38
2023/11/21 00:57:08;;;;;;;4.15;2.35;;;;;;;18.92;82.96;101110.94;5068319;28;20021;-38
2023/11/21 00:59:34;;;;;;;4.63;2.60;;;;;;;18.92;83.24;101114.50;5038682;28;20088;-39
2023/11/21 01:02:01;;;;;;;3.85;2.33;;;;;;;18.91;83.13;101110.09;5040626;28;20061;-38
2023/11/21 01:04:26;;;;;;;3.85;2.85;;;;;;;18.92;82.96;101121.94;5036251;28;20071;-38
2023/11/21 01:06:52;;;;;;;6.47;3.13;;;;;;;18.91;83.13;101123.84;5035833;28;20032;-38
2023/11/21 01:09:18;;;;;;;5.32;2.70;;;;;;;18.90;83.29;101126.84;5047287;28;20158;-38
2023/11/21 01:11:44;;;;;;;6.53;3.13;;;;;;;18.90;83.29;101135.09;5031859;28;20071;-38
2023/11/21 01:14:10;;;;;;;5.05;2.70;;;;;;;18.89;83.21;101142.47;5040807;28;20061;-40
2023/11/21 01:16:35;;;;;;;3.58;2.40;;;;;;;18.89;83.11;101144.41;5045482;28;20025;-38
2023/11/21 01:19:01;;;;;;;4.30;2.72;;;;;;;18.88;83.15;101149.09;5045243;28;20033;-38
2023/11/21 01:21:27;;;;;;;6.30;3.03;;;;;;;18.87;83.36;101143.84;5036461;28;20036;-39
2023/11/21 01:23:54;;;;;;;7.72;2.67;;;;;;;18.85;83.23;101151.56;5037537;28;21380;-39
2023/11/21 01:26:20;;;;;;;4.55;2.60;;;;;;;18.84;83.56;101155.41;5046976;28;20253;-39
2023/11/21 01:28:45;;;;;;;4.47;2.70;;;;;;;18.83;83.40;101151.00;5049623;28;20029;-38
2023/11/21 01:31:10;;;;;;;6.47;2.50;;;;;;;18.82;83.50;101152.94;5044819;28;20119;-38
2023/11/21 01:33:36;;;;;;;3.67;2.60;;;;;;;18.82;83.50;101160.34;5044176;28;20464;-38
2023/11/21 01:36:01;;;;;;;4.25;2.80;;;;;;;18.81;83.51;101162.28;5057840;28;20052;-38
2023/11/21 01:38:27;;;;;;;3.83;2.83;;;;;;;18.82;83.37;101166.69;5039804;28;20029;-38
2023/11/21 01:40:52;;;;;;;4.45;2.63;;;;;;;18.81;83.49;101173.25;5061107;28;20025;-38
2023/11/21 01:43:17;;;;;;;4.95;2.30;;;;;;;18.82;83.49;101174.06;5058333;28;20394;-38
2023/11/21 01:45:45;;;;;;;5.05;2.47;;;;;;;18.82;83.87;101171.31;5061325;28;20401;-39
2023/11/21 01:48:10;;;;;;;4.57;2.50;;;;;;;18.82;83.45;101179.56;5043128;28;20066;-38
2023/11/21 01:50:36;;;;;;;3.60;2.33;;;;;;;18.82;83.51;101179.56;5056007;28;20029;-38
2023/11/21 01:53:01;;;;;;;4.55;2.75;;;;;;;18.82;83.53;101179.56;5039992;28;20409;-38
2023/11/21 01:55:27;;;;;;;5.03;2.38;;;;;;;18.81;83.73;101186.16;5049875;28;20113;-38
2023/11/21 01:57:53;;;;;;;3.40;2.45;;;;;;;18.80;83.61;101190.81;5053887;28;20060;-41
2023/11/21 02:00:19;;;;;;;6.78;2.45;;;;;;;18.80;83.91;101195.47;5054900;28;20756;-40
2023/11/21 02:02:45;;;;;;;5.07;2.65;;;;;;;18.77;83.58;101183.97;5050533;28;20421;-38
2023/11/21 02:05:14;;;;;;;5.93;2.63;;;;;;;18.78;83.94;101190.28;5050402;28;20029;-40
2023/11/21 02:07:42;;;;;;;5.05;2.60;;;;;;;18.77;83.89;101186.72;5057204;28;19920;-38
2023/11/21 02:10:08;;;;;;;3.92;2.47;;;;;;;18.76;83.73;101186.97;5048548;28;20104;-38
2023/11/21 02:12:38;;;;;;;5.38;2.60;;;;;;;18.75;84.13;101190.84;5042440;28;20024;-37
2023/11/21 02:15:09;;;;;;;3.42;2.60;;;;;;;18.74;84.02;101194.66;5045699;28;20040;-39
2023/11/21 02:17:35;;;;;;;4.15;2.47;;;;;;;18.72;84.21;101192.22;5040061;28;20020;-38
2023/11/21 02:20:00;;;;;;;4.20;2.50;;;;;;;18.73;84.21;101196.56;5050451;28;20037;-39
2023/11/21 02:22:30;;;;;;;6.20;2.65;;;;;;;18.71;84.23;101203.44;5046940;28;20043;-38
2023/11/21 02:24:57;;;;;;;4.88;2.78;;;;;;;18.72;83.99;101199.59;5058951;28;20056;-38
2023/11/21 02:27:23;;;;;;;3.78;2.67;;;;;;;18.70;84.27;101199.88;5049308;28;20028;-38
2023/11/21 02:29:48;;;;;;;4.63;2.30;;;;;;;18.71;84.07;101206.19;5036862;28;20045;-37
2023/11/21 02:32:14;;;;;;;5.25;2.38;;;;;;;18.71;84.08;101206.19;5061661;28;20031;-40
2023/11/21 02:34:39;;;;;;;4.90;2.42;;;;;;;18.69;84.07;101203.72;5059420;28;20511;-41
2023/11/21 02:37:06;;;;;;;3.15;2.22;;;;;;;18.68;84.18;101199.31;5058883;28;20469;-38
2023/11/21 02:39:31;;;;;;;5.22;2.40;;;;;;;18.67;84.16;101202.34;5054588;28;20036;-39
2023/11/21 02:41:57;;;;;;;6.70;2.17;;;;;;;18.66;84.24;101204.25;5050553;28;20111;-41
2023/11/21 02:44:22;;;;;;;4.90;2.53;;;;;;;18.67;84.33;101199.59;5045439;28;20504;-38
2023/11/21 02:46:47;;;;;;;4.32;2.55;;;;;;;18.67;84.47;101207.84;5052870;28;20222;-41
2023/11/21 02:49:13;;;;;;;4.40;2.70;;;;;;;18.65;84.64;101204.53;5026372;28;20029;-41
2023/11/21 02:51:38;;;;;;;4.70;2.60;;;;;;;18.65;84.61;101212.75;5029025;28;20017;-42
2023/11/21 02:54:06;;;;;;;4.28;2.60;;;;;;;18.64;84.42;101209.22;5034655;28;20095;-41
2023/11/21 02:56:32;;;;;;;4.38;2.22;;;;;;;18.64;84.70;101208.38;5035849;28;20025;-41
2023/11/21 02:59:00;;;;;;;5.88;2.40;;;;;;;18.64;84.63;101211.97;5041410;28;20112;-41
2023/11/21 03:01:25;;;;;;;4.13;2.50;;;;;;;18.63;84.80;101214.97;5008619;28;1214053;-41
2023/11/21 03:03:51;;;;;;;4.18;2.47;;;;;;;18.63;84.59;101212.25;5039513;28;20072;-42
2023/11/21 03:06:18;;;;;;;3.85;2.60;;;;;;;18.61;84.77;101228.97;5045818;28;20566;-41
2023/11/21 03:08:43;;;;;;;4.35;2.53;;;;;;;18.60;84.76;101227.31;5043263;28;20029;-42
2023/11/21 03:11:09;;;;;;;6.88;2.30;;;;;;;18.60;84.75;101232.78;5052078;28;20732;-42
2023/11/21 03:13:34;;;;;;;4.32;2.20;;;;;;;18.59;84.87;101229.22;5059216;28;20031;-41
2023/11/21 03:15:59;;;;;;;2.72;2.03;;;;;;;18.60;84.77;101219.91;5042300;28;20036;-41
2023/11/21 03:18:25;;;;;;;3.40;2.20;;;;;;;18.59;85.00;101217.44;5035849;28;20186;-38
2023/11/21 03:20:52;;;;;;;3.45;2.20;;;;;;;18.59;84.96;101222.94;5053957;28;20021;-38
2023/11/21 03:23:17;;;;;;;3.17;2.00;;;;;;;18.58;84.98;101222.09;5035799;28;20040;-38
2023/11/21 03:25:43;;;;;;;3.50;2.15;;;;;;;18.58;85.43;101219.34;5047836;28;20408;-42
2023/11/21 03:28:08;;;;;;;5.15;2.20;;;;;;;18.58;84.86;101224.84;5047310;28;20032;-42
2023/11/21 03:30:34;;;;;;;5.30;2.40;;;;;;;18.57;85.28;101228.66;5033548;28;20066;-42
2023/11/21 03:32:59;;;;;;;8.27;2.13;;;;;;;18.57;85.42;101230.59;5030711;28;20033;-41
2023/11/21 03:35:24;;;;;;;3.78;2.28;;;;;;;18.55;85.04;101235.53;5060083;28;20028;-41
2023/11/21 03:37:50;;;;;;;2.80;2.05;;;;;;;18.55;85.37;101230.88;5045851;28;20099;-41
2023/11/21 03:40:15;;;;;;;5.13;2.20;;;;;;;18.55;85.48;101241.03;5048755;28;20064;-38
2023/11/21 03:42:41;;;;;;;5.88;2.35;;;;;;;18.55;85.38;101252.00;5037188;28;20045;-38
2023/11/21 03:45:08;;;;;;;3.70;2.17;;;;;;;18.54;85.59;101253.94;5031098;28;20353;-38
2023/11/21 03:47:33;;;;;;;4.82;1.90;;;;;;;18.53;85.32;101255.03;5034083;28;20552;-38
2023/11/21 03:49:58;;;;;;;3.33;1.73;;;;;;;18.53;85.39;101255.03;5027930;28;20133;-38
2023/11/21 03:52:24;;;;;;;6.05;2.20;;;;;;;18.52;85.63;101258.88;5038527;28;20025;-38
2023/11/21 03:54:50;;;;;;;3.65;2.10;;;;;;;18.53;85.43;101267.94;5029941;28;20554;-38
2023/11/21 03:57:15;;;;;;;4.32;2.17;;;;;;;18.52;85.66;101267.09;5033236;28;20017;-38
2023/11/21 03:59:41;;;;;;;3.58;2.20;;;;;;;18.51;85.72;101265.44;5038938;28;20037;-41
2023/11/21 04:02:07;;;;;;;3.88;2.15;;;;;;;18.52;85.57;101267.09;5049496;28;20034;-41
2023/11/21 04:04:33;;;;;;;3.03;2.10;;;;;;;18.50;85.89;101273.94;5052343;28;20389;-42
2023/11/21 04:06:59;;;;;;;4.97;2.45;;;;;;;18.51;85.67;101270.13;5035831;28;20090;-41
2023/11/21 04:09:25;;;;;;;3.42;2.25;;;;;;;18.49;85.73;101272.28;5053212;28;20032;-39
2023/11/21 04:11:51;;;;;;;3.53;2.17;;;;;;;18.50;85.87;101273.94;5053854;28;20036;-39
2023/11/21 04:14:16;;;;;;;3.60;2.17;;;;;;;18.49;86.04;101280.53;5047281;28;20402;-39
2023/11/21 04:16:42;;;;;;;3.40;2.00;;;;;;;18.50;85.83;101284.94;5057591;28;20020;-39
2023/11/21 04:19:10;;;;;;;5.85;2.20;;;;;;;18.50;85.95;101285.75;5050798;28;20033;-39
2023/11/21 04:21:36;;;;;;;2.97;2.00;;;;;;;18.49;86.00;101297.00;5045544;28;20070;-39
2023/11/21 04:24:01;;;;;;;4.28;2.00;;;;;;;18.49;85.89;101294.25;5035172;28;20040;-37
2023/11/21 04:26:26;;;;;;;3.05;2.00;;;;;;;18.49;86.22;101303.34;5045318;28;20025;-37
2023/11/21 04:28:52;;;;;;;3.40;1.90;;;;;;;18.48;86.24;101304.41;5045120;28;20024;-38
2023/11/21 04:31:17;;;;;;;5.35;1.95;;;;;;;18.48;86.01;101315.41;5050281;28;20482;-39
2023/11/21 04:33:44;;;;;;;3.13;2.08;;;;;;;18.48;86.15;101309.06;5047542;28;20088;-39
2023/11/21 04:36:10;;;;;;;3.97;2.20;;;;;;;18.47;86.44;101308.25;5060502;28;20466;-38
2023/11/21 04:38:35;;;;;;;6.90;2.38;;;;;;;18.47;86.44;101308.25;5042183;28;20031;-39
2023/11/21 04:41:01;;;;;;;2.45;1.88;;;;;;;18.47;86.10;101304.66;5046661;28;20409;-38
2023/11/21 04:43:26;;;;;;;5.13;1.90;;;;;;;18.47;86.48;101316.50;5052068;28;20028;-38
2023/11/21 04:45:52;;;;;;;3.50;1.80;;;;;;;18.47;86.51;101319.22;5048789;28;20028;-38
2023/11/21 04:48:17;;;;;;;3.22;2.28;;;;;;;18.45;86.60;101315.91;5049885;28;20078;-38
2023/11/21 04:50:42;;;;;;;3.88;2.30;;;;;;;18.45;86.54;101321.41;5039286;28;20045;-38
2023/11/21 04:53:08;;;;;;;4.60;2.08;;;;;;;18.45;86.57;101329.66;5043153;28;20182;-38
2023/11/21 04:55:33;;;;;;;3.53;1.98;;;;;;;18.46;86.40;101333.22;5034745;28;20052;-39
2023/11/21 04:57:58;;;;;;;2.97;1.88;;;;;;;18.46;86.55;101342.28;5046399;28;20173;-39
2023/11/21 05:00:24;;;;;;;3.85;1.80;;;;;;;18.46;86.55;101346.97;5046406;28;20045;-39
2023/11/21 05:02:49;;;;;;;4.15;2.00;;;;;;;18.46;86.57;101346.97;5045181;28;20060;-39
2023/11/21 05:05:15;;;;;;;3.72;2.13;;;;;;;18.44;86.49;101344.47;5048680;28;20032;-39
2023/11/21 05:07:41;;;;;;;3.33;2.08;;;;;;;18.44;86.54;101341.72;5042897;28;20017;-41
2023/11/21 05:10:14;;;;;;;4.22;1.88;;;;;;;18.44;86.85;101349.94;5060387;28;20036;-41
2023/11/21 05:12:43;;;;;;;4.57;1.70;;;;;;;18.43;86.68;101354.63;5042244;28;20486;-42
2023/11/21 05:15:12;;;;;;;4.00;1.85;;;;;;;18.42;87.00;101361.19;5054511;28;20100;-38
2023/11/21 05:17:42;;;;;;;4.32;1.95;;;;;;;18.43;86.75;101365.59;5041618;28;20535;-41
2023/11/21 05:20:09;;;;;;;2.20;1.70;;;;;;;18.43;86.98;101365.59;5045114;28;20028;-38
2023/11/21 05:22:35;;;;;;;3.53;1.90;;;;;;;18.43;86.99;101359.28;5041732;28;20100;-38
2023/11/21 05:25:02;;;;;;;2.88;1.90;;;;;;;18.43;86.71;101373.03;5082677;28;20131;-39
2023/11/21 05:27:28;;;;;;;2.33;1.80;;;;;;;18.43;86.90;101376.56;5041098;28;20459;-38
2023/11/21 05:29:53;;;;;;;1.95;1.70;;;;;;;18.42;86.98;101385.09;5037759;28;20109;-42
2023/11/21 05:32:18;;;;;;;3.30;1.75;;;;;;;18.42;86.98;101379.59;5047549;28;20087;-42
2023/11/21 05:34:46;;;;;;;3.88;2.00;;;;;;;18.42;86.78;101383.16;5048278;28;20546;-42
2023/11/21 05:37:11;;;;;;;2.38;1.70;;;;;;;18.42;87.00;101387.81;5060945;28;20028;-41
2023/11/21 05:39:37;;;;;;;3.17;1.83;;;;;;;18.42;86.92;101393.31;5053494;28;20074;-38
2023/11/21 05:42:03;;;;;;;2.60;1.60;;;;;;;18.43;87.28;101393.03;5034992;28;20035;-39
2023/11/21 05:44:29;;;;;;;3.95;2.03;;;;;;;18.47;86.89;101395.25;5043339;28;20033;-42
2023/11/21 05:46:54;;;;;;;3.15;1.85;;;;;;;18.52;86.92;101385.13;5047190;28;20032;-41
2023/11/21 05:49:21;;;;;;;3.63;2.05;;;;;;;18.57;86.67;101393.38;5044697;28;20352;-42
2023/11/21 05:51:47;;;;;;;3.33;1.95;;;;;;;18.65;86.51;101396.72;5037631;28;20066;-38
2023/11/21 05:54:12;;;;;;;3.63;2.00;;;;;;;18.71;86.31;101412.94;5041438;28;20859;-38
2023/11/21 05:56:38;;;;;;;3.25;1.90;;;;;;;18.80;86.13;101418.75;5030757;28;20703;-39
2023/11/21 05:59:03;;;;;;;1.80;1.65;;;;;;;18.89;86.13;101416.31;5044887;28;20033;-40
2023/11/21 06:01:28;;;;;;;3.97;1.90;;;;;;;18.98;85.82;101413.91;5045633;28;20560;-38
2023/11/21 06:03:54;;;;;;;3.28;1.85;;;;;;;19.08;85.89;101424.94;5035904;28;20025;-39
2023/11/21 06:06:22;;;;;;;3.20;1.83;;;;;;;19.19;85.48;101429.34;5033074;28;20017;-38
2023/11/21 06:08:48;;;;;;;2.25;1.73;;;;;;;19.30;85.49;101426.63;5044392;28;20033;-39
2023/11/21 06:11:14;;;;;;;2.72;1.73;;;;;;;19.42;85.14;101429.13;5041244;28;20031;-38
2023/11/21 06:13:39;;;;;;;1.67;1.35;;;;;;;19.53;85.08;101433.53;5042577;28;20618;-42
2023/11/21 06:16:05;;;;;;;2.20;1.50;;;;;;;19.64;84.17;101437.13;5032755;28;20507;-41
2023/11/21 06:18:30;;;;;;;2.35;1.70;;;;;;;19.75;84.14;101429.72;5028509;28;20029;-41
2023/11/21 06:20:56;;;;;;;2.42;1.50;;;;;;;19.84;84.04;101430.81;5035251;28;20033;-42
2023/11/21 06:23:21;;;;;;;2.22;1.48;;;;;;;19.93;83.85;101442.94;5036954;28;20116;-42
2023/11/21 06:25:46;;;;;;;2.33;1.60;;;;;;;20.01;83.75;101447.06;5031595;28;20210;-40
2023/11/21 06:28:12;;;;;;;1.50;1.40;;;;;;;20.12;83.48;101447.88;5025931;28;20367;-43
2023/11/21 06:30:38;;;;;;;3.78;1.75;;;;;;;20.20;83.01;101455.59;5036756;28;20060;-42
2023/11/21 06:33:03;;;;;;;1.73;1.48;;;;;;;20.28;83.12;101462.44;5027863;28;20095;-42
2023/11/21 06:35:30;;;;;;;2.60;1.50;;;;;;;20.36;83.15;101459.16;5033592;28;20229;-42
2023/11/21 06:37:55;;;;;;;1.75;1.30;;;;;;;20.43;83.13;101458.84;5043989;28;20116;-39
2023/11/21 06:40:21;;;;;;;2.72;1.60;;;;;;;20.44;82.35;101464.09;5040183;28;20124;-39
2023/11/21 06:42:47;;;;;;;1.60;1.20;;;;;;;20.48;82.48;101469.88;5040939;28;20021;-38
2023/11/21 06:45:13;;;;;;;1.92;1.40;;;;;;;20.48;82.70;101472.63;5041296;28;20037;-38
2023/11/21 06:47:39;;;;;;;1.67;1.40;;;;;;;20.47;82.96;101482.78;5045247;28;20027;-38
2023/11/21 06:50:06;;;;;;;1.90;1.30;;;;;;;20.47;82.49;101481.97;5042620;28;20040;-39
2023/11/21 06:52:32;;;;;;;2.08;1.42;;;;;;;20.45;82.82;101489.69;5045686;28;20027;-38
2023/11/21 06:54:57;;;;;;;3.42;1.20;;;;;;;20.43;82.43;101494.63;5026419;28;20032;-38
2023/11/21 06:57:23;;;;;;;2.15;1.40;;;;;;;20.39;82.61;101502.63;5037608;28;20473;-38
2023/11/21 06:59:48;;;;;;;2.20;1.20;;;;;;;20.35;82.58;101498.78;5042700;28;20095;-38
2023/11/21 07:02:14;;;;;;;1.90;1.30;;;;;;;20.32;82.82;101508.41;5053601;28;20020;-38
2023/11/21 07:04:39;;;;;;;1.20;1.10;;;;;;;20.28;82.79;101503.75;5055563;28;20028;-39
2023/11/21 07:07:07;;;;;;;1.20;1.10;;;;;;;20.25;82.69;101515.31;5039465;28;20092;-39
2023/11/21 07:09:32;;;;;;;1.80;1.30;;;;;;;20.22;82.97;101513.94;5042611;28;20036;-39
2023/11/21 07:11:57;;;;;;;1.30;1.20;;;;;;;20.21;83.25;101520.53;5051124;28;20040;-39
2023/11/21 07:14:23;;;;;;;2.92;1.20;;;;;;;20.20;83.04;101516.13;5042359;28;20123;-39
2023/11/21 07:16:48;;;;;;;1.65;1.00;;;;;;;20.20;83.46;101524.41;5040812;28;20029;-38
2023/11/21 07:19:14;;;;;;;1.50;1.08;;;;;;;20.22;83.41;101529.63;5046407;28;20021;-42
2023/11/21 07:21:40;;;;;;;1.63;1.10;;;;;;;20.23;83.16;101539.53;5039465;28;20037;-39
2023/11/21 07:24:06;;;;;;;3.92;1.27;;;;;;;20.25;83.04;101543.66;5036360;28;20029;-39
2023/11/21 07:26:33;;;;;;;1.48;1.05;;;;;;;20.28;83.40;101542.28;5038513;28;20033;-39
2023/11/21 07:28:59;;;;;;;2.90;1.10;;;;;;;20.30;83.14;101546.41;5037912;28;20032;-39
2023/11/21 07:31:25;;;;;;;2.10;1.00;;;;;;;20.32;82.91;101557.97;5043415;28;20029;-39
2023/11/21 07:33:51;;;;;;;3.28;1.30;;;;;;;20.34;83.02;101549.44;5040474;28;20345;-38
2023/11/21 07:36:18;;;;;;;1.25;0.93;;;;;;;20.34;82.93;101557.69;5035489;28;20041;-38
2023/11/21 07:38:43;;;;;;;1.50;1.20;;;;;;;20.33;82.87;101556.03;5058920;28;20500;-38
2023/11/21 07:41:09;;;;;;;2.97;1.25;;;;;;;20.32;83.10;101563.47;5054166;28;20029;-42
2023/11/21 07:43:37;;;;;;;2.42;1.13;;;;;;;20.32;83.10;101570.91;5051554;28;20515;-42
2023/11/21 07:46:03;;;;;;;3.05;1.20;;;;;;;20.31;83.41;101569.25;5050026;28;20507;-42
2023/11/21 07:48:31;;;;;;;1.67;1.00;;;;;;;20.30;83.00;101573.13;5044783;28;20142;-42
2023/11/21 07:50:58;;;;;;;1.48;1.00;;;;;;;20.28;83.29;101576.16;5040440;28;20033;-41
2023/11/21 07:53:25;;;;;;;2.22;1.30;;;;;;;20.27;83.32;101580.00;5039626;28;20021;-41
2023/11/21 07:55:51;;;;;;;1.35;1.23;;;;;;;20.25;83.30;101579.44;5033404;28;20029;-42
2023/11/21 07:58:16;;;;;;;4.50;1.48;;;;;;;20.23;83.06;101592.63;5043710;28;20099;-43
2023/11/21 08:00:42;;;;;;;2.60;1.73;;;;;;;20.23;83.38;101594.56;5047235;28;20105;-42
2023/11/21 08:03:07;;;;;;;2.78;1.48;;;;;;;20.21;83.21;101592.09;5041329;28;20032;-42
2023/11/21 08:05:33;;;;;;;1.25;1.15;;;;;;;20.18;83.07;101598.97;5046447;28;20032;-42
2023/11/21 08:07:58;;;;;;;1.67;1.10;;;;;;;20.15;83.33;101602.28;5037509;28;20033;-43
2023/11/21 08:10:23;;;;;;;1.98;1.20;;;;;;;20.14;83.74;101610.81;5041736;28;20025;-43
2023/11/21 08:12:50;;;;;;;3.22;1.10;;;;;;;20.11;83.62;101620.44;5049841;28;20044;-42
2023/11/21 08:15:15;;;;;;;1.92;1.30;;;;;;;20.10;83.75;101620.69;5056934;28;20546;-44
2023/11/21 08:17:41;;;;;;;2.80;1.20;;;;;;;20.06;83.82;101625.94;5038398;28;20440;-43
2023/11/21 08:20:08;;;;;;;2.67;1.13;;;;;;;20.04;84.16;101617.94;5052254;28;20474;-43
2023/11/21 08:22:34;;;;;;;4.40;1.58;;;;;;;20.01;84.09;101623.16;5046639;28;20127;-42
2023/11/21 08:24:59;;;;;;;2.22;1.10;;;;;;;19.97;83.79;101628.38;5034715;28;20492;-42
2023/11/21 08:27:25;;;;;;;2.75;1.35;;;;;;;19.97;83.99;101628.38;5032539;28;20078;-42
2023/11/21 08:29:52;;;;;;;2.38;1.25;;;;;;;19.94;83.83;101628.94;5028195;28;20159;-41
2023/11/21 08:32:17;;;;;;;2.28;1.15;;;;;;;19.92;84.38;101627.53;5050920;28;20071;-42
2023/11/21 08:34:44;;;;;;;3.10;1.20;;;;;;;19.89;84.24;101626.16;5042632;28;20112;-42
2023/11/21 08:37:10;;;;;;;3.90;1.40;;;;;;;19.86;84.14;101624.78;5038279;28;20389;-41
2023/11/21 08:39:37;;;;;;;2.25;1.25;;;;;;;19.86;84.23;101626.69;5047190;28;20021;-42
2023/11/21 08:42:03;;;;;;;5.28;1.55;;;;;;;19.84;84.60;101628.88;5053334;28;20036;-41
2023/11/21 08:44:30;;;;;;;2.47;1.50;;;;;;;19.83;84.09;101617.06;5054943;28;20027;-41
2023/11/21 08:46:55;;;;;;;4.00;1.63;;;;;;;19.82;84.20;101626.38;5054308;28;20028;-42
2023/11/21 08:49:21;;;;;;;4.68;1.30;;;;;;;19.80;84.56;101636.81;5050703;28;20032;-43
2023/11/21 08:51:46;;;;;;;4.00;1.50;;;;;;;19.79;84.20;101634.34;5045074;28;20719;-42
2023/11/21 08:54:11;;;;;;;2.63;1.50;;;;;;;19.78;84.32;101635.44;5033855;28;20029;-42
2023/11/21 08:56:37;;;;;;;2.63;1.50;;;;;;;19.77;84.27;101647.56;5036084;28;20040;-42
2023/11/21 08:59:02;;;;;;;3.08;1.40;;;;;;;19.75;84.68;101642.28;5047019;28;20024;-42
2023/11/21 09:01:31;;;;;;;3.97;1.52;;;;;;;19.73;84.82;101650.00;5051274;28;20135;-42
2023/11/21 09:03:57;;;;;;;2.25;1.50;;;;;;;19.73;84.65;101667.31;5050571;28;20040;-42
2023/11/21 09:06:23;;;;;;;2.80;1.60;;;;;;;19.71;85.09;101672.25;5044627;28;20060;-41
2023/11/21 09:08:49;;;;;;;29.02;2.53;;;;;;;19.73;86.04;101674.75;5034908;28;20030;-44
2023/11/21 09:11:14;;;;;;;12.32;2.35;;;;;;;19.76;87.57;101687.16;5050716;28;20040;-44
2023/11/21 09:13:40;;;;;;;17.88;2.58;;;;;;;19.80;87.30;101677.25;5055426;28;20053;-46
2023/11/21 09:16:05;;;;;;;7.28;1.73;;;;;;;19.84;86.14;101678.38;5049709;28;20017;-39
2023/11/21 09:18:31;;;;;;;11.75;1.92;;;;;;;19.88;86.07;101685.03;5046422;28;20499;-38
2023/11/21 09:20:57;;;;;;;5.95;1.75;;;;;;;19.91;85.48;101694.66;5038133;28;20483;-46
2023/11/21 09:23:22;;;;;;;4.90;1.73;;;;;;;19.93;85.12;101701.53;5031895;28;20056;-38
2023/11/21 09:25:49;;;;;;;10.63;2.50;;;;;;;19.94;84.73;101694.94;5043923;28;20063;-41
2023/11/21 09:28:15;;;;;;;9.05;1.88;;;;;;;19.98;85.16;101698.00;5046018;28;20564;-42
2023/11/21 09:30:41;;;;;;;9.05;2.17;;;;;;;20.00;85.02;101706.78;5043388;28;20096;-38
2023/11/21 09:33:06;;;;;;;9.35;1.80;;;;;;;20.03;84.61;101711.75;5040961;28;20029;-39
2023/11/21 09:35:32;;;;;;;4.78;1.60;;;;;;;20.04;84.43;101719.75;5044244;28;20342;-39
2023/11/21 09:37:57;;;;;;;5.25;1.60;;;;;;;20.05;83.76;101726.09;5034308;28;20478;-39
2023/11/21 09:40:23;;;;;;;5.15;1.85;;;;;;;20.07;83.99;101723.88;5035801;28;20100;-39
2023/11/21 09:42:58;;;;;;;5.60;1.60;;;;;;;20.09;84.03;101734.63;5044578;28;20040;-38
2023/11/21 09:45:35;;;;;;;3.03;1.60;;;;;;;20.10;83.71;101748.13;5044938;28;20828;-39
2023/11/21 09:48:00;;;;;;;3.42;1.65;;;;;;;20.10;83.68;101750.88;5045257;28;20028;-38
2023/11/21 09:50:26;;;;;;;2.83;1.58;;;;;;;20.12;83.53;101754.19;5049865;28;20055;-39
2023/11/21 09:53:16;;;;;;;3.17;1.63;;;;;;;20.12;83.30;101767.09;5049694;28;20460;-39
2023/11/21 09:55:43;;;;;;;2.95;1.52;;;;;;;20.14;83.06;101771.25;5038292;28;20023;-39
2023/11/21 09:58:11;;;;;;;3.58;1.45;;;;;;;20.15;82.79;101772.09;5036825;28;20047;-39
2023/11/21 10:00:45;;;;;;;3.03;1.83;;;;;;;20.16;83.22;101774.56;5051577;28;20579;-37
2023/11/21 10:03:12;;;;;;;2.50;1.50;;;;;;;20.16;82.73;101780.06;5079906;28;20119;-41
2023/11/21 10:05:38;;;;;;;3.78;1.75;;;;;;;20.18;83.00;101788.03;5044560;28;20041;-41
2023/11/21 10:08:09;;;;;;;2.65;1.30;;;;;;;20.18;82.69;101797.16;5040981;28;20037;-43
2023/11/21 10:10:35;;;;;;;2.08;1.48;;;;;;;20.21;82.09;101801.28;5052611;28;20032;-42
2023/11/21 10:13:06;;;;;;;4.53;1.70;;;;;;;20.19;82.48;101801.53;5054472;28;20032;-38
2023/11/21 10:15:34;;;;;;;3.38;1.60;;;;;;;20.20;82.62;101803.19;5051522;28;20033;-38
2023/11/21 10:18:02;;;;;;;4.57;1.60;;;;;;;20.21;82.56;101806.78;5052611;28;20531;-39
2023/11/21 10:20:29;;;;;;;3.08;1.40;;;;;;;20.22;82.48;101810.34;5048175;28;20091;-40
2023/11/21 10:22:54;;;;;;;2.28;1.70;;;;;;;20.22;82.26;101819.47;5055217;28;20546;-42
2023/11/21 10:25:20;;;;;;;2.25;1.50;;;;;;;20.25;82.88;101831.84;5051425;28;20024;-39
2023/11/21 10:27:47;;;;;;;2.47;1.60;;;;;;;20.26;83.03;101822.50;5043422;28;20087;-38
2023/11/21 10:30:13;;;;;;;3.85;1.67;;;;;;;20.26;82.33;101828.81;5041348;28;20031;-40
2023/11/21 10:32:40;;;;;;;4.78;1.67;;;;;;;20.29;82.88;101835.72;5048525;28;20030;-40
2023/11/21 10:35:12;;;;;;;7.32;1.90;;;;;;;20.28;82.91;101845.06;5050926;28;20033;-40
2023/11/21 10:37:40;;;;;;;5.10;1.60;;;;;;;20.29;81.89;101846.72;5049224;28;20060;-39
2023/11/21 10:40:13;;;;;;;5.13;1.90;;;;;;;20.30;81.98;101846.44;5057742;28;20017;-39
2023/11/21 10:42:39;;;;;;;8.20;1.90;;;;;;;20.28;82.44;101848.66;5040058;28;20388;-39
2023/11/21 10:45:12;;;;;;;6.70;2.00;;;;;;;20.28;82.39;101847.81;5032426;28;20503;-40
2023/11/21 10:47:39;;;;;;;5.63;1.53;;;;;;;20.30;82.13;101853.88;5059449;28;20457;-40
2023/11/21 10:50:08;;;;;;;6.72;1.73;;;;;;;20.30;82.34;101854.72;5027622;28;20037;-40
2023/11/21 10:52:36;;;;;;;5.10;1.80;;;;;;;20.28;82.43;101867.94;5040208;28;20427;-40
2023/11/21 10:55:03;;;;;;;2.95;1.50;;;;;;;20.29;82.51;101857.75;5035607;28;20036;-40
2023/11/21 10:57:29;;;;;;;2.25;1.40;;;;;;;20.29;82.52;101866.00;5040380;28;20419;-40
2023/11/21 10:59:54;;;;;;;3.33;1.92;;;;;;;20.30;82.35;101867.66;5048925;28;20040;-40
2023/11/21 11:02:32;;;;;;;3.35;1.50;;;;;;;20.30;82.77;101862.16;5052641;28;20517;-40
2023/11/21 11:04:58;;;;;;;4.45;1.60;;;;;;;20.30;82.41;101859.41;5050754;28;20430;-39
2023/11/21 11:07:27;;;;;;;2.28;1.60;;;;;;;20.30;82.86;101860.22;5037207;28;20108;-38
2023/11/21 11:09:54;;;;;;;1.67;1.38;;;;;;;20.30;82.92;101865.72;5034594;28;20032;-40
2023/11/21 11:12:20;;;;;;;1.45;1.35;;;;;;;20.31;82.38;101861.88;5041174;28;20032;-40
2023/11/21 11:14:46;;;;;;;2.50;1.50;;;;;;;20.31;81.81;101866.56;5039765;28;20029;-39
2023/11/21 11:17:13;;;;;;;3.90;1.40;;;;;;;20.31;81.63;101872.88;5041786;28;20060;-39
2023/11/21 11:19:39;;;;;;;2.38;1.90;;;;;;;20.31;82.00;101866.56;5049783;28;20827;-39